createdAt,value
2022-11-28T00:01:44.605Z,19.40
2022-11-28T00:04:14.141Z,18.40
2022-11-28T00:06:50.197Z,17.60
2022-11-28T00:09:20.664Z,19.10
2022-11-28T00:11:49.897Z,18.80
2022-11-28T00:14:20.248Z,17.90
2022-11-28T00:16:48.893Z,18.90
2022-11-28T00:19:17.114Z,17.50
2022-11-28T00:21:45.109Z,21.40
2022-11-28T00:24:13.666Z,18.10
2022-11-28T00:26:43.070Z,18.50
2022-11-28T00:29:12.050Z,17.90
2022-11-28T00:31:44.913Z,18.20
2022-11-28T00:34:15.474Z,18.70
2022-11-28T00:36:46.441Z,15.50
2022-11-28T00:39:16.936Z,17.40
2022-11-28T00:41:45.543Z,17.60
2022-11-28T00:44:14.113Z,18.20
2022-11-28T00:46:42.486Z,17.80
2022-11-28T00:49:10.577Z,17.00
2022-11-28T00:51:38.676Z,17.90
2022-11-28T00:54:07.732Z,16.40
2022-11-28T00:56:40.193Z,17.80
2022-11-28T00:59:08.891Z,17.50
2022-11-28T01:01:41.686Z,15.80
2022-11-28T01:04:14.918Z,16.50
2022-11-28T01:06:48.059Z,16.20
2022-11-28T01:09:22.142Z,14.70
2022-11-28T01:11:53.564Z,17.30
2022-11-28T01:14:24.912Z,17.50
2022-11-28T01:16:53.290Z,17.00
2022-11-28T01:19:21.709Z,16.90
2022-11-28T01:21:49.910Z,15.10
2022-11-28T01:24:18.384Z,15.50
2022-11-28T01:26:46.457Z,16.00
2022-11-28T01:29:15.040Z,16.00
2022-11-28T01:31:43.147Z,18.10
2022-11-28T01:34:11.214Z,15.30
2022-11-28T01:36:39.664Z,14.50
2022-11-28T01:39:07.839Z,15.50
2022-11-28T01:41:36.011Z,15.30
2022-11-28T01:44:13.223Z,15.80
2022-11-28T01:46:42.207Z,15.10
2022-11-28T01:49:37.612Z,14.00
2022-11-28T01:54:39.927Z,13.80
2022-11-28T01:57:20.822Z,15.20
2022-11-28T02:00:09.237Z,15.40
2022-11-28T02:03:05.549Z,15.20
2022-11-28T02:05:34.087Z,13.50
2022-11-28T02:08:03.837Z,15.20
2022-11-28T02:11:00.565Z,16.00
2022-11-28T02:13:59.237Z,15.60
2022-11-28T02:17:14.690Z,14.50
2022-11-28T02:20:29.218Z,14.60
2022-11-28T02:23:12.036Z,15.00
2022-11-28T02:26:07.505Z,15.20
2022-11-28T02:29:11.506Z,16.30
2022-11-28T02:32:10.743Z,14.70
2022-11-28T02:34:46.842Z,15.50
2022-11-28T02:37:27.274Z,15.10
2022-11-28T02:40:23.616Z,16.40
2022-11-28T02:42:58.173Z,15.90
2022-11-28T02:48:49.574Z,15.00
2022-11-28T02:51:37.831Z,17.30
2022-11-28T02:54:11.737Z,16.70
2022-11-28T02:56:46.691Z,15.20
2022-11-28T02:59:37.581Z,16.20
2022-11-28T03:02:14.318Z,16.60
2022-11-28T03:05:17.864Z,16.30
2022-11-28T03:08:06.206Z,15.80
2022-11-28T03:10:51.274Z,15.40
2022-11-28T03:16:35.528Z,16.20
2022-11-28T03:19:19.585Z,17.90
2022-11-28T03:21:56.371Z,16.50
2022-11-28T03:24:44.678Z,16.50
2022-11-28T03:27:36.121Z,16.10
2022-11-28T03:30:15.697Z,17.30
2022-11-28T03:32:47.631Z,17.20
2022-11-28T03:35:22.878Z,16.20
2022-11-28T03:38:04.879Z,18.10
2022-11-28T03:40:42.885Z,16.90
2022-11-28T03:43:18.412Z,16.60
2022-11-28T03:45:53.861Z,15.90
2022-11-28T03:48:32.084Z,16.40
2022-11-28T03:51:12.395Z,17.40
2022-11-28T03:53:55.872Z,17.00
2022-11-28T03:56:48.827Z,17.50
2022-11-28T03:59:28.353Z,17.50
2022-11-28T04:02:15.187Z,18.10
2022-11-28T04:05:29.191Z,18.00
2022-11-28T04:08:12.516Z,17.80
2022-11-28T04:10:56.730Z,17.20
2022-11-28T04:13:41.293Z,19.70
2022-11-28T04:16:39.289Z,18.80
2022-11-28T04:19:34.206Z,18.00
2022-11-28T04:22:15.637Z,20.80
2022-11-28T04:24:57.966Z,19.40
2022-11-28T04:27:37.873Z,18.80
2022-11-28T04:30:08.868Z,18.40
2022-11-28T04:32:46.856Z,19.70
2022-11-28T04:35:27.392Z,19.20
2022-11-28T04:37:57.599Z,20.30
2022-11-28T04:40:28.676Z,18.90
2022-11-28T04:43:10.742Z,17.80
2022-11-28T04:45:46.775Z,19.50
2022-11-28T04:48:14.994Z,20.50
2022-11-28T04:50:54.307Z,20.40
2022-11-28T04:53:38.071Z,21.60
2022-11-28T04:56:20.035Z,20.00
2022-11-28T04:58:50.791Z,23.10
2022-11-28T05:01:30.997Z,20.70
2022-11-28T05:03:59.949Z,20.70
2022-11-28T05:06:35.113Z,22.80
2022-11-28T05:09:05.461Z,22.90
2022-11-28T05:11:33.546Z,21.80
2022-11-28T05:14:02.070Z,20.70
2022-11-28T05:16:30.062Z,20.90
2022-11-28T05:18:58.183Z,20.10
2022-11-28T05:21:26.360Z,21.00
2022-11-28T05:23:54.561Z,21.90
2022-11-28T05:26:23.040Z,21.20
2022-11-28T05:28:52.936Z,25.10
2022-11-28T05:31:22.003Z,19.00
2022-11-28T05:33:50.742Z,20.70
2022-11-28T05:36:19.021Z,22.60
2022-11-28T05:38:48.112Z,21.00
2022-11-28T05:41:29.444Z,21.50
2022-11-28T05:43:59.666Z,21.30
2022-11-28T05:46:29.746Z,22.70
2022-11-28T05:48:58.120Z,24.10
2022-11-28T05:51:26.175Z,18.80
2022-11-28T05:53:54.160Z,21.70
2022-11-28T05:56:24.948Z,19.60
2022-11-28T05:58:54.406Z,20.40
2022-11-28T06:01:29.700Z,21.50
2022-11-28T06:04:01.164Z,22.20
2022-11-28T06:06:32.652Z,20.00
2022-11-28T06:09:02.373Z,21.90
2022-11-28T06:11:34.078Z,21.50
2022-11-28T06:14:03.415Z,21.50
2022-11-28T06:16:32.558Z,19.20
2022-11-28T06:19:04.966Z,21.20
2022-11-28T06:21:33.483Z,21.20
2022-11-28T06:24:01.439Z,22.10
2022-11-28T06:26:30.115Z,22.50
2022-11-28T06:28:58.380Z,21.50
2022-11-28T06:31:30.214Z,21.00
2022-11-28T06:33:59.178Z,23.10
2022-11-28T06:36:27.545Z,20.50
2022-11-28T06:38:55.703Z,20.30
2022-11-28T06:41:24.187Z,24.30
2022-11-28T06:43:52.175Z,20.90
2022-11-28T06:46:22.147Z,20.50
2022-11-28T06:48:52.943Z,20.10
2022-11-28T06:51:22.009Z,21.40
2022-11-28T06:53:50.482Z,20.00
2022-11-28T06:56:20.852Z,23.00
2022-11-28T06:58:58.526Z,22.10
2022-11-28T07:01:32.541Z,21.40
2022-11-28T07:04:02.174Z,22.90
2022-11-28T07:06:30.394Z,21.40
2022-11-28T07:08:59.181Z,22.70
2022-11-28T07:11:31.366Z,21.60
2022-11-28T07:14:02.800Z,21.80
2022-11-28T07:16:33.786Z,23.60
2022-11-28T07:19:02.816Z,21.60
2022-11-28T07:21:31.951Z,21.20
2022-11-28T07:24:00.476Z,22.00
2022-11-28T07:26:28.610Z,22.10
2022-11-28T07:28:58.453Z,24.10
2022-11-28T07:31:31.961Z,22.80
2022-11-28T07:34:03.674Z,21.50
2022-11-28T07:36:32.200Z,21.00
2022-11-28T07:39:02.789Z,22.40
2022-11-28T07:41:31.869Z,22.90
2022-11-28T07:44:03.203Z,21.40
2022-11-28T07:46:34.252Z,22.90
2022-11-28T07:49:02.534Z,21.50
2022-11-28T07:51:33.996Z,21.10
2022-11-28T07:54:04.180Z,21.00
2022-11-28T07:57:04.473Z,21.60
2022-11-28T07:59:24.813Z,21.60
2022-11-28T08:01:54.120Z,20.90
2022-11-28T08:04:23.180Z,21.00
2022-11-28T08:06:51.397Z,21.90
2022-11-28T08:09:19.669Z,22.50
2022-11-28T08:11:47.698Z,21.20
2022-11-28T08:14:15.674Z,20.80
2022-11-28T08:16:45.350Z,20.80
2022-11-28T08:19:13.751Z,20.90
2022-11-28T08:21:43.148Z,22.70
2022-11-28T08:24:12.198Z,21.40
2022-11-28T08:26:40.156Z,18.60
2022-11-28T08:29:09.784Z,21.50
2022-11-28T08:31:40.075Z,22.50
2022-11-28T08:34:10.918Z,20.40
2022-11-28T08:36:39.964Z,19.60
2022-11-28T08:39:24.886Z,20.30
2022-11-28T08:41:57.515Z,19.70
2022-11-28T08:44:30.368Z,19.20
2022-11-28T08:46:59.216Z,21.10
2022-11-28T08:49:27.247Z,18.40
2022-11-28T08:51:55.293Z,21.10
2022-11-28T08:54:23.143Z,22.10
2022-11-28T08:56:51.128Z,19.20
2022-11-28T08:59:19.318Z,19.00
2022-11-28T09:01:48.055Z,20.60
2022-11-28T09:04:16.127Z,19.50
2022-11-28T09:06:44.434Z,19.00
2022-11-28T09:09:12.727Z,17.70
2022-11-28T09:11:41.971Z,20.10
2022-11-28T09:14:10.501Z,19.00
2022-11-28T09:16:40.865Z,19.10
2022-11-28T09:19:10.773Z,19.30
2022-11-28T09:21:39.019Z,19.20
2022-11-28T09:24:08.468Z,18.00
2022-11-28T09:26:36.564Z,20.30
2022-11-28T09:29:04.567Z,18.50
2022-11-28T09:31:32.604Z,21.10
2022-11-28T09:34:00.660Z,18.30
2022-11-28T09:36:28.690Z,18.90
2022-11-28T09:38:59.704Z,16.20
2022-11-28T09:41:52.170Z,18.00
2022-11-28T09:44:42.172Z,17.70
2022-11-28T09:47:36.945Z,16.80
2022-11-28T09:50:21.028Z,19.10
2022-11-28T09:53:34.739Z,17.00
2022-11-28T09:56:14.679Z,17.40
2022-11-28T09:58:55.612Z,16.20
2022-11-28T10:01:48.205Z,17.70
2022-11-28T10:04:35.091Z,17.00
2022-11-28T10:07:26.531Z,17.10
2022-11-28T10:10:09.695Z,16.70
2022-11-28T10:13:02.720Z,17.50
2022-11-28T10:15:56.409Z,16.80
2022-11-28T10:18:52.390Z,15.40
2022-11-28T10:21:35.440Z,16.50
2022-11-28T10:24:36.413Z,17.00
2022-11-28T10:27:06.561Z,15.60
2022-11-28T10:30:04.740Z,16.20
2022-11-28T10:32:42.462Z,17.30
2022-11-28T10:35:28.122Z,15.70
2022-11-28T10:37:56.954Z,14.60
2022-11-28T10:40:43.460Z,16.40
2022-11-28T10:43:38.273Z,15.70
2022-11-28T10:47:02.241Z,15.30
2022-11-28T10:50:00.420Z,15.50
2022-11-28T10:52:59.315Z,15.40
2022-11-28T10:56:00.800Z,15.80
2022-11-28T10:59:08.466Z,16.00
2022-11-28T11:01:43.683Z,15.30
2022-11-28T11:04:24.137Z,16.50
2022-11-28T11:07:17.996Z,15.00
2022-11-28T11:09:49.178Z,15.50
2022-11-28T11:12:32.514Z,15.80
2022-11-28T11:15:33.597Z,14.40
2022-11-28T11:18:17.294Z,16.90
2022-11-28T11:20:45.482Z,15.40
2022-11-28T11:23:22.983Z,16.60
2022-11-28T11:25:58.486Z,16.00
2022-11-28T11:28:50.657Z,14.20
2022-11-28T11:31:30.174Z,15.50
2022-11-28T11:34:19.545Z,16.30
2022-11-28T11:36:48.662Z,15.00
2022-11-28T11:39:25.699Z,15.30
2022-11-28T11:42:00.089Z,15.40
2022-11-28T11:44:36.710Z,16.30
2022-11-28T11:47:10.645Z,15.10
2022-11-28T11:49:43.896Z,17.20
2022-11-28T11:52:15.818Z,15.10
2022-11-28T11:55:11.584Z,15.60
2022-11-28T11:57:47.576Z,14.40
2022-11-28T12:00:21.039Z,14.50
2022-11-28T12:03:22.230Z,13.90
2022-11-28T12:06:13.727Z,13.70
2022-11-28T12:09:23.508Z,13.90
2022-11-28T12:12:01.889Z,15.30
2022-11-28T12:14:35.201Z,13.10
2022-11-28T12:20:38.318Z,15.60
2022-11-28T12:23:34.160Z,13.90
2022-11-28T12:26:48.710Z,15.70
2022-11-28T12:29:48.826Z,14.70
2022-11-28T12:32:43.934Z,14.00
2022-11-28T12:35:41.140Z,14.20
2022-11-28T12:38:33.631Z,13.90
2022-11-28T12:41:10.205Z,13.60
2022-11-28T12:43:57.013Z,15.00
2022-11-28T12:46:38.292Z,13.60
2022-11-28T12:49:25.291Z,13.60
2022-11-28T12:52:37.113Z,13.60
2022-11-28T12:55:25.978Z,15.10
2022-11-28T12:58:19.012Z,13.60
2022-11-28T13:01:02.566Z,14.10
2022-11-28T13:04:04.448Z,13.10
2022-11-28T13:07:12.732Z,14.30
2022-11-28T13:10:13.584Z,12.10
2022-11-28T13:13:21.109Z,13.50
2022-11-28T13:16:03.035Z,12.60
2022-11-28T13:19:04.159Z,13.50
2022-11-28T13:22:08.349Z,14.20
2022-11-28T13:25:29.661Z,13.50
2022-11-28T13:28:09.262Z,13.90
2022-11-28T13:30:59.350Z,13.60
2022-11-28T13:33:50.303Z,12.70
2022-11-28T13:40:02.016Z,13.50
2022-11-28T13:43:04.428Z,12.40
2022-11-28T13:45:40.748Z,13.00
2022-11-28T13:51:42.745Z,12.40
2022-11-28T13:54:22.576Z,12.50
2022-11-28T13:57:13.307Z,11.50
2022-11-28T14:00:00.616Z,11.80
2022-11-28T14:02:47.948Z,13.30
2022-11-28T14:05:31.172Z,12.20
2022-11-28T14:08:00.687Z,12.60
2022-11-28T14:11:00.696Z,12.60
2022-11-28T14:13:54.455Z,12.70
2022-11-28T14:16:52.226Z,12.60
2022-11-28T14:19:58.302Z,13.00
2022-11-28T14:22:54.949Z,14.00
2022-11-28T14:25:48.102Z,11.70
2022-11-28T14:28:27.303Z,11.80
2022-11-28T14:31:08.115Z,12.60
2022-11-28T14:33:42.692Z,12.90
2022-11-28T14:36:35.482Z,13.10
2022-11-28T14:39:19.659Z,11.70
2022-11-28T14:42:06.756Z,11.70
2022-11-28T14:45:00.860Z,11.90
2022-11-28T14:47:37.500Z,13.30
2022-11-28T14:50:05.813Z,12.10
2022-11-28T14:52:44.526Z,12.30
2022-11-28T14:55:26.064Z,12.80
2022-11-28T14:57:59.746Z,13.30
2022-11-28T15:00:56.361Z,12.60
2022-11-28T15:03:45.603Z,12.20
2022-11-28T15:06:35.616Z,11.60
2022-11-28T15:09:19.016Z,12.70
2022-11-28T15:12:16.481Z,11.70
2022-11-28T15:14:52.746Z,11.90
2022-11-28T15:17:32.631Z,12.90
2022-11-28T15:20:14.780Z,12.50
2022-11-28T15:22:45.690Z,12.10
2022-11-28T15:25:23.117Z,11.80
2022-11-28T15:27:53.785Z,13.50
2022-11-28T15:30:26.860Z,12.80
2022-11-28T15:33:02.090Z,12.60
2022-11-28T15:35:31.081Z,13.80
2022-11-28T15:38:00.371Z,13.10
2022-11-28T15:40:36.554Z,11.60
2022-11-28T15:43:11.238Z,12.40
2022-11-28T15:45:43.112Z,12.30
2022-11-28T15:48:52.721Z,11.80
2022-11-28T15:51:38.891Z,11.40
2022-11-28T15:54:33.492Z,12.60
2022-11-28T15:57:03.040Z,13.50
2022-11-28T15:59:31.656Z,11.40
2022-11-28T16:02:32.428Z,12.30
2022-11-28T16:05:16.152Z,11.70
2022-11-28T16:07:45.306Z,11.80
2022-11-28T16:10:29.949Z,13.50
2022-11-28T16:13:10.777Z,12.90
2022-11-28T16:15:39.328Z,13.10
2022-11-28T16:18:07.315Z,13.20
2022-11-28T16:20:37.726Z,13.30
2022-11-28T16:23:18.108Z,12.20
2022-11-28T16:26:01.559Z,12.20
2022-11-28T16:28:40.989Z,12.40
2022-11-28T16:31:21.359Z,13.00
2022-11-28T16:33:50.444Z,11.60
2022-11-28T16:36:22.866Z,12.30
2022-11-28T16:39:03.436Z,12.50
2022-11-28T16:41:32.795Z,10.80
2022-11-28T16:44:07.419Z,11.60
2022-11-28T16:46:40.669Z,14.10
2022-11-28T16:49:38.562Z,13.10
2022-11-28T16:52:21.888Z,11.80
2022-11-28T16:54:52.108Z,12.00
2022-11-28T16:57:21.589Z,12.50
2022-11-28T16:59:54.829Z,12.20
2022-11-28T17:02:27.003Z,12.40
2022-11-28T17:04:55.150Z,11.80
2022-11-28T17:07:24.819Z,11.80
2022-11-28T17:09:53.031Z,13.60
2022-11-28T17:12:32.676Z,12.50
2022-11-28T17:15:00.754Z,11.70
2022-11-28T17:17:30.757Z,13.30
2022-11-28T17:19:58.943Z,12.30
2022-11-28T17:22:40.384Z,13.00
2022-11-28T17:25:19.480Z,13.70
2022-11-28T17:27:48.458Z,12.70
2022-11-28T17:30:19.256Z,11.90
2022-11-28T17:32:48.208Z,11.90
2022-11-28T17:35:24.933Z,12.90
2022-11-28T17:37:52.929Z,12.40
2022-11-28T17:40:33.285Z,12.20
2022-11-28T17:43:01.762Z,12.40
2022-11-28T17:45:35.064Z,13.20
2022-11-28T17:48:03.646Z,13.70
2022-11-28T17:50:31.873Z,12.80
2022-11-28T17:52:59.775Z,11.80
2022-11-28T17:55:29.086Z,11.60
2022-11-28T17:57:57.194Z,12.40
2022-11-28T18:00:25.831Z,12.10
2022-11-28T18:02:54.932Z,12.40
2022-11-28T18:05:23.162Z,13.30
2022-11-28T18:07:51.411Z,12.80
2022-11-28T18:10:19.426Z,14.60
2022-11-28T18:12:47.842Z,13.90
2022-11-28T18:15:16.320Z,11.80
2022-11-28T18:17:44.395Z,12.50
2022-11-28T18:20:12.675Z,13.20
2022-11-28T18:22:40.662Z,12.20
2022-11-28T18:25:09.957Z,13.60
2022-11-28T18:27:38.609Z,13.40
2022-11-28T18:30:07.722Z,11.60
2022-11-28T18:32:35.899Z,13.30
2022-11-28T18:35:04.785Z,13.50
2022-11-28T18:37:32.931Z,12.80
2022-11-28T18:40:04.023Z,12.50
2022-11-28T18:42:36.274Z,13.70
2022-11-28T18:45:05.266Z,12.80
2022-11-28T18:47:36.305Z,12.80
2022-11-28T18:50:05.736Z,12.40
2022-11-28T18:52:33.782Z,14.00
2022-11-28T18:55:01.922Z,13.50
2022-11-28T18:57:32.999Z,14.50
2022-11-28T19:00:02.284Z,12.40
2022-11-28T19:02:31.032Z,14.00
2022-11-28T19:04:59.268Z,13.00
2022-11-28T19:07:28.162Z,13.30
2022-11-28T19:09:56.386Z,12.40
2022-11-28T19:12:25.418Z,13.20
2022-11-28T19:14:58.725Z,11.50
2022-11-28T19:17:30.168Z,12.80
2022-11-28T19:19:58.342Z,11.90
2022-11-28T19:22:26.442Z,13.70
2022-11-28T19:24:54.458Z,12.60
2022-11-28T19:27:22.957Z,13.50
2022-11-28T19:29:51.094Z,13.70
2022-11-28T19:32:19.314Z,12.70
2022-11-28T19:34:52.421Z,13.60
2022-11-28T19:37:20.437Z,13.60
2022-11-28T19:39:49.997Z,13.70
2022-11-28T19:42:18.774Z,13.50
2022-11-28T19:44:47.494Z,12.60
2022-11-28T19:47:15.732Z,11.90
2022-11-28T19:49:44.108Z,13.10
2022-11-28T19:52:12.389Z,11.90
2022-11-28T19:54:40.396Z,12.40
2022-11-28T19:57:12.678Z,13.40
2022-11-28T19:59:42.880Z,13.10
2022-11-28T20:02:11.497Z,12.60
2022-11-28T20:04:40.735Z,12.70
2022-11-28T20:07:08.819Z,12.10
2022-11-28T20:09:37.474Z,12.50
2022-11-28T20:12:06.075Z,11.60
2022-11-28T20:14:34.970Z,14.50
2022-11-28T20:17:04.474Z,11.40
2022-11-28T20:19:33.671Z,11.90
2022-11-28T20:22:01.731Z,11.10
2022-11-28T20:24:30.568Z,12.60
2022-11-28T20:26:59.109Z,12.40
2022-11-28T20:29:28.416Z,14.20
2022-11-28T20:31:57.523Z,12.30
2022-11-28T20:34:27.229Z,11.70
2022-11-28T20:36:55.602Z,12.10
2022-11-28T20:39:26.322Z,13.10
2022-11-28T20:41:54.243Z,11.20
2022-11-28T20:44:22.389Z,11.50
2022-11-28T20:46:50.351Z,11.30
2022-11-28T20:49:19.137Z,12.30
2022-11-28T20:51:48.332Z,12.60
2022-11-28T20:54:17.452Z,11.80
2022-11-28T20:59:36.205Z,11.80
2022-11-28T21:02:04.255Z,12.80
2022-11-28T21:04:32.246Z,12.30
2022-11-28T21:07:00.315Z,11.40
2022-11-28T21:09:28.409Z,14.10
2022-11-28T21:11:58.446Z,11.90
2022-11-28T21:14:28.896Z,13.40
2022-11-28T21:16:58.526Z,13.20
2022-11-28T21:19:26.515Z,12.30
2022-11-28T21:21:54.498Z,10.60
2022-11-28T21:24:22.614Z,12.80
2022-11-28T21:26:54.087Z,11.90
2022-11-28T21:29:24.688Z,12.50
2022-11-28T21:31:53.899Z,11.90
2022-11-28T21:34:23.050Z,12.00
2022-11-28T21:36:51.621Z,14.40
2022-11-28T21:39:21.345Z,14.20
2022-11-28T21:41:51.399Z,12.50
2022-11-28T21:44:21.319Z,13.00
2022-11-28T21:46:50.481Z,11.00
2022-11-28T21:49:19.148Z,13.10
2022-11-28T21:51:47.451Z,12.30
2022-11-28T21:54:15.382Z,11.30
2022-11-28T21:56:46.104Z,11.60
2022-11-28T21:59:14.503Z,10.10
2022-11-28T22:01:42.672Z,11.70
2022-11-28T22:04:11.364Z,11.60
2022-11-28T22:06:40.670Z,10.70
2022-11-28T22:09:09.984Z,11.80
2022-11-28T22:11:40.283Z,11.40
2022-11-28T22:14:08.580Z,11.10
2022-11-28T22:16:37.461Z,10.30
2022-11-28T22:19:05.842Z,9.60
2022-11-28T22:21:54.321Z,11.50
2022-11-28T22:24:24.813Z,11.90
2022-11-28T22:26:54.321Z,12.30
2022-11-28T22:29:22.751Z,10.50
2022-11-28T22:31:51.052Z,10.30
2022-11-28T22:34:19.761Z,11.10
2022-11-28T22:36:48.142Z,10.80
2022-11-28T22:39:16.636Z,10.60
2022-11-28T22:41:44.696Z,11.30
2022-11-28T22:44:13.830Z,9.90
2022-11-28T22:46:41.788Z,11.10
2022-11-28T22:49:11.607Z,11.00
2022-11-28T22:51:40.796Z,10.70
2022-11-28T22:54:12.786Z,10.70
2022-11-28T22:56:41.320Z,11.30
2022-11-28T22:59:15.440Z,10.00
2022-11-28T23:01:43.797Z,11.60
2022-11-28T23:04:12.597Z,9.90
2022-11-28T23:06:40.617Z,10.50
2022-11-28T23:09:11.432Z,10.60
2022-11-28T23:11:41.248Z,10.40
2022-11-28T23:14:14.163Z,10.00
2022-11-28T23:16:45.070Z,11.10
2022-11-28T23:19:18.205Z,9.20
2022-11-28T23:21:49.952Z,9.50
2022-11-28T23:24:22.370Z,10.40
2022-11-28T23:26:52.749Z,10.90
2022-11-28T23:29:21.445Z,11.30
2022-11-28T23:31:50.182Z,9.20
2022-11-28T23:34:18.300Z,9.70
2022-11-28T23:36:47.858Z,11.00
2022-11-28T23:39:23.499Z,10.20
2022-11-28T23:41:53.523Z,10.40
2022-11-28T23:44:21.599Z,10.10
2022-11-28T23:46:49.759Z,10.10
2022-11-28T23:49:17.857Z,9.80
2022-11-28T23:51:46.034Z,10.80
2022-11-28T23:54:14.385Z,10.90
2022-11-28T23:56:43.686Z,10.20
2022-11-28T23:59:13.196Z,10.50
